Time;durP1;ratioP1;P1;durP2;ratioP2;P2;SDS_P1;SDS_P2;PMS_P1;PMS_P2;Temp;Humidity;BMP_temperature;BMP_pressure;BME280_temperature;BME280_humidity;BME280_pressure;Samples;Min_cycle;Max_cycle;Signal;HPM_P1;HPM_P2
2022/03/30 00:01:10;;;;;;;12.87;8.30;;;11.50;97.00;;;;;;4984563;28;20224;-79
2022/03/30 00:03:37;;;;;;;18.97;9.83;;;11.50;97.50;;;;;;4985699;28;20654;-78
2022/03/30 00:06:04;;;;;;;17.87;9.87;;;11.50;97.40;;;;;;4993776;28;20204;-79
2022/03/30 00:08:30;;;;;;;14.67;8.83;;;11.50;97.10;;;;;;4991109;28;20303;-79
2022/03/30 00:10:59;;;;;;;13.30;8.27;;;11.50;97.40;;;;;;4988682;28;20550;-79
2022/03/30 00:13:26;;;;;;;12.60;9.03;;;11.50;97.50;;;;;;4992367;28;20263;-78
2022/03/30 00:15:54;;;;;;;14.90;8.87;;;11.50;97.80;;;;;;4993544;28;20205;-79
2022/03/30 00:18:21;;;;;;;15.67;9.67;;;11.50;97.60;;;;;;4990364;28;20228;-79
2022/03/30 00:20:47;;;;;;;16.60;9.70;;;11.50;97.80;;;;;;4988337;28;20223;-78
2022/03/30 00:23:15;;;;;;;15.30;8.93;;;11.40;97.50;;;;;;4991309;28;20722;-79
2022/03/30 00:25:41;;;;;;;19.87;11.00;;;11.40;97.60;;;;;;4991059;28;20206;-79
2022/03/30 00:28:10;;;;;;;16.17;9.50;;;11.40;97.70;;;;;;4990435;28;20207;-79
2022/03/30 00:30:37;;;;;;;19.30;10.10;;;11.40;97.90;;;;;;4983114;28;20191;-77
2022/03/30 00:33:04;;;;;;;16.73;9.80;;;11.40;98.00;;;;;;4989382;28;20257;-78
2022/03/30 00:35:31;;;;;;;15.87;9.43;;;11.30;98.00;;;;;;4990426;28;20250;-79
2022/03/30 00:37:58;;;;;;;14.63;9.50;;;11.30;98.00;;;;;;4991623;28;20196;-78
2022/03/30 00:40:25;;;;;;;16.03;9.57;;;11.30;98.00;;;;;;4986185;28;20566;-78
2022/03/30 00:42:52;;;;;;;17.43;10.17;;;11.30;98.10;;;;;;4989830;28;20675;-79
2022/03/30 00:45:23;;;;;;;19.60;10.87;;;11.30;98.10;;;;;;4991128;28;20206;-78
2022/03/30 00:47:50;;;;;;;20.77;10.17;;;11.30;98.00;;;;;;4991155;28;20680;-78
2022/03/30 00:50:19;;;;;;;16.27;9.37;;;11.30;98.30;;;;;;4982713;28;20223;-78
2022/03/30 00:52:47;;;;;;;15.10;8.77;;;11.30;98.70;;;;;;4993160;28;20646;-77
2022/03/30 00:55:16;;;;;;;17.60;9.90;;;11.20;98.20;;;;;;4985724;28;20639;-79
2022/03/30 00:57:45;;;;;;;18.67;10.47;;;11.20;98.50;;;;;;4990801;28;20218;-77
2022/03/30 01:00:15;;;;;;;15.07;9.63;;;11.20;98.40;;;;;;4979494;28;20225;-78
2022/03/30 01:02:45;;;;;;;17.43;11.00;;;11.20;98.50;;;;;;4990882;28;20199;-79
2022/03/30 01:05:13;;;;;;;17.40;11.27;;;11.20;98.70;;;;;;4985132;28;20206;-79
2022/03/30 01:07:40;;;;;;;22.40;12.53;;;11.20;98.60;;;;;;4989113;28;20229;-79
2022/03/30 01:10:09;;;;;;;23.97;11.67;;;11.20;98.90;;;;;;4979202;28;20219;-79
2022/03/30 01:12:39;;;;;;;18.90;10.20;;;11.20;98.90;;;;;;4984396;28;20230;-78
2022/03/30 01:15:07;;;;;;;19.10;10.37;;;11.20;98.80;;;;;;4987381;28;20210;-79
2022/03/30 01:17:34;;;;;;;15.17;9.63;;;11.20;98.90;;;;;;4982442;28;20225;-78
2022/03/30 01:20:02;;;;;;;15.37;10.00;;;11.20;98.90;;;;;;4982148;28;20223;-78
2022/03/30 01:22:31;;;;;;;17.17;10.23;;;11.20;99.20;;;;;;4989490;28;20194;-78
2022/03/30 01:24:58;;;;;;;20.33;9.70;;;11.20;99.10;;;;;;4987474;28;20207;-78
2022/03/30 01:27:24;;;;;;;18.40;10.33;;;11.20;99.30;;;;;;4988859;28;20225;-79
2022/03/30 01:32:37;;;;;;;17.77;9.53;;;11.20;99.20;;;;;;4987923;28;20256;-78
2022/03/30 01:35:06;;;;;;;17.87;10.63;;;11.10;99.70;;;;;;4987448;28;20290;-79
2022/03/30 01:37:34;;;;;;;18.90;10.03;;;11.10;99.90;;;;;;4982994;28;20207;-78
2022/03/30 01:40:04;;;;;;;17.43;10.50;;;11.10;99.90;;;;;;4989857;28;20233;-79
2022/03/30 01:42:31;;;;;;;16.97;10.53;;;11.10;99.90;;;;;;4981765;28;20696;-79
2022/03/30 01:44:58;;;;;;;21.43;11.73;;;11.10;99.90;;;;;;4989274;28;20202;-79
2022/03/30 01:47:25;;;;;;;16.80;12.33;;;11.00;99.90;;;;;;4986654;28;20199;-78
2022/03/30 01:49:52;;;;;;;18.13;11.87;;;11.00;99.90;;;;;;4988432;28;20254;-79
2022/03/30 01:52:19;;;;;;;17.37;11.70;;;11.00;99.90;;;;;;4987240;28;20305;-79
2022/03/30 01:54:48;;;;;;;19.77;12.67;;;11.00;99.90;;;;;;4987118;28;20203;-78
2022/03/30 01:57:15;;;;;;;21.43;13.37;;;11.00;99.90;;;;;;4987797;28;20202;-77
2022/03/30 01:59:43;;;;;;;19.10;12.70;;;11.00;99.90;;;;;;4983633;28;20245;-78
2022/03/30 02:02:11;;;;;;;18.70;12.77;;;11.00;99.90;;;;;;4982892;28;20293;-79
2022/03/30 02:04:38;;;;;;;18.20;12.63;;;11.00;99.90;;;;;;4978465;28;20204;-78
2022/03/30 02:07:08;;;;;;;21.17;13.20;;;11.00;99.90;;;;;;4987528;28;20201;-79
2022/03/30 02:09:34;;;;;;;19.97;12.90;;;11.00;99.90;;;;;;5009797;23;20289;-77
2022/03/30 02:12:03;;;;;;;16.00;11.93;;;11.00;99.90;;;;;;4979849;28;20200;-77
2022/03/30 02:14:30;;;;;;;16.43;11.67;;;11.00;99.90;;;;;;4982894;28;20197;-78
2022/03/30 02:16:57;;;;;;;20.60;12.10;;;10.90;99.90;;;;;;4982104;28;20249;-77
2022/03/30 02:19:23;;;;;;;16.83;10.80;;;10.90;99.90;;;;;;4977049;28;20230;-78
2022/03/30 02:21:50;;;;;;;15.57;10.53;;;10.90;99.90;;;;;;4980689;28;20223;-78
2022/03/30 02:24:17;;;;;;;24.50;12.60;;;10.80;99.90;;;;;;4980691;28;20215;-78
2022/03/30 02:26:45;;;;;;;19.40;11.43;;;10.70;99.90;;;;;;4980253;28;20285;-77
2022/03/30 02:29:13;;;;;;;21.13;12.80;;;10.70;99.90;;;;;;4980159;28;20253;-77
2022/03/30 02:31:41;;;;;;;19.20;11.87;;;10.70;99.90;;;;;;4981138;28;20250;-78
2022/03/30 02:34:08;;;;;;;19.17;13.27;;;10.60;99.90;;;;;;4985574;28;20197;-79
2022/03/30 02:36:35;;;;;;;17.03;11.93;;;10.60;99.90;;;;;;4979797;28;20202;-77
2022/03/30 02:39:02;;;;;;;16.53;10.20;;;10.60;99.90;;;;;;4980233;28;20226;-78
2022/03/30 02:41:29;;;;;;;20.30;11.93;;;10.60;99.90;;;;;;4983190;28;20210;-80
2022/03/30 02:43:56;;;;;;;20.07;12.40;;;10.60;99.90;;;;;;4970362;28;20201;-78
2022/03/30 02:46:24;;;;;;;21.17;12.73;;;10.60;99.90;;;;;;4970050;28;20217;-79
2022/03/30 02:48:51;;;;;;;15.77;11.17;;;10.60;99.90;;;;;;4970118;28;20219;-76
2022/03/30 02:51:18;;;;;;;17.93;11.63;;;10.60;99.90;;;;;;4970325;28;20265;-77
2022/03/30 02:53:45;;;;;;;16.63;11.27;;;10.70;99.90;;;;;;4969769;28;20207;-77
2022/03/30 02:56:12;;;;;;;19.70;12.13;;;10.70;99.90;;;;;;4979581;28;20191;-77
2022/03/30 02:58:39;;;;;;;14.80;10.83;;;10.70;99.90;;;;;;4982193;28;20218;-77
2022/03/30 03:01:06;;;;;;;16.00;11.07;;;10.70;99.90;;;;;;4984026;28;20251;-77
2022/03/30 03:03:34;;;;;;;17.03;10.73;;;10.60;99.90;;;;;;4985062;28;20202;-78
2022/03/30 03:06:01;;;;;;;19.63;12.23;;;10.60;99.90;;;;;;4969794;28;20202;-77
2022/03/30 03:08:27;;;;;;;22.57;12.53;;;10.60;99.90;;;;;;4974767;28;20227;-77
2022/03/30 03:10:54;;;;;;;15.57;10.03;;;10.60;99.90;;;;;;4976003;28;20190;-77
2022/03/30 03:13:21;;;;;;;18.13;10.83;;;10.60;99.90;;;;;;4985534;28;20217;-78
2022/03/30 03:15:48;;;;;;;16.87;11.00;;;10.60;99.90;;;;;;4982770;28;20225;-82
2022/03/30 03:18:15;;;;;;;20.07;11.23;;;10.60;99.90;;;;;;4959955;28;20195;-81
2022/03/30 03:20:46;;;;;;;21.63;12.57;;;10.50;99.90;;;;;;4984597;28;20288;-79
2022/03/30 03:23:13;;;;;;;18.60;11.73;;;10.50;99.90;;;;;;4980462;28;20505;-79
2022/03/30 03:25:41;;;;;;;19.17;9.97;;;10.50;99.90;;;;;;4985544;28;20197;-79
2022/03/30 03:28:09;;;;;;;18.67;10.40;;;10.50;99.90;;;;;;4981913;28;20195;-79
2022/03/30 03:30:36;;;;;;;14.53;10.17;;;10.40;99.90;;;;;;4984423;28;20218;-78
2022/03/30 03:33:03;;;;;;;15.57;9.97;;;10.40;99.90;;;;;;4982124;28;20197;-79
2022/03/30 03:35:30;;;;;;;15.70;9.70;;;10.40;99.90;;;;;;4979818;28;20213;-78
2022/03/30 03:37:59;;;;;;;13.97;8.83;;;10.50;99.90;;;;;;4981586;28;20208;-79
2022/03/30 03:40:27;;;;;;;15.23;8.83;;;10.50;99.90;;;;;;4985469;28;20222;-79
2022/03/30 03:42:54;;;;;;;18.97;10.80;;;10.60;99.90;;;;;;4982992;28;20230;-79
2022/03/30 03:45:21;;;;;;;20.63;8.93;;;10.50;99.90;;;;;;4998971;28;20204;-79
2022/03/30 03:47:49;;;;;;;15.07;8.60;;;10.60;99.90;;;;;;4984624;28;20197;-79
2022/03/30 03:50:16;;;;;;;14.33;8.53;;;10.60;99.90;;;;;;4985764;28;20707;-79
2022/03/30 03:52:43;;;;;;;20.47;9.07;;;10.60;99.90;;;;;;4981905;28;20195;-79
2022/03/30 03:55:12;;;;;;;15.77;8.93;;;10.60;99.90;;;;;;4981051;28;20241;-79
2022/03/30 03:57:39;;;;;;;15.60;8.63;;;10.50;99.90;;;;;;4976556;28;20237;-79
2022/03/30 04:00:08;;;;;;;17.73;7.53;;;10.50;99.90;;;;;;4984115;28;20285;-80
2022/03/30 04:02:41;;;;;;;15.37;8.00;;;10.50;99.90;;;;;;4975542;28;20291;-78
2022/03/30 04:05:09;;;;;;;19.07;8.77;;;10.50;99.90;;;;;;4984304;28;20262;-79
2022/03/30 04:07:37;;;;;;;20.70;8.67;;;10.50;99.90;;;;;;4995772;28;20204;-80
2022/03/30 04:10:06;;;;;;;15.60;8.50;;;10.40;99.90;;;;;;4985619;28;20222;-79
2022/03/30 04:12:34;;;;;;;14.70;8.60;;;10.40;99.90;;;;;;4979989;28;20201;-79
2022/03/30 04:15:01;;;;;;;20.97;9.13;;;10.40;99.90;;;;;;4982148;28;20715;-79
2022/03/30 04:17:29;;;;;;;24.10;9.97;;;10.30;99.90;;;;;;4984359;28;20297;-78
2022/03/30 04:19:56;;;;;;;16.63;8.50;;;10.20;99.90;;;;;;4983697;28;20216;-79
2022/03/30 04:22:22;;;;;;;17.63;9.50;;;10.20;99.90;;;;;;4984051;28;20710;-79
2022/03/30 04:24:49;;;;;;;19.60;8.83;;;10.20;99.90;;;;;;4981662;28;20199;-79
2022/03/30 04:27:16;;;;;;;21.90;9.63;;;10.20;99.90;;;;;;4984772;28;20694;-79
2022/03/30 04:29:44;;;;;;;17.37;8.60;;;10.20;99.90;;;;;;4982649;28;20233;-79
2022/03/30 04:32:11;;;;;;;20.77;9.83;;;10.10;99.90;;;;;;4986389;28;20201;-79
2022/03/30 04:34:38;;;;;;;16.27;9.07;;;10.10;99.90;;;;;;4981904;28;20206;-79
2022/03/30 04:37:05;;;;;;;19.93;9.93;;;10.10;99.90;;;;;;4982739;28;20253;-79
2022/03/30 04:39:33;;;;;;;18.43;9.13;;;10.00;99.90;;;;;;4985538;28;20776;-79
2022/03/30 04:42:00;;;;;;;20.23;10.23;;;9.90;99.90;;;;;;4982675;28;20260;-79
2022/03/30 04:44:27;;;;;;;15.97;9.27;;;9.90;99.90;;;;;;4984606;28;20203;-79
2022/03/30 04:46:55;;;;;;;23.63;10.00;;;9.80;99.90;;;;;;4982670;28;20204;-79
2022/03/30 04:49:22;;;;;;;21.13;9.13;;;9.80;99.90;;;;;;4981233;28;20226;-78
2022/03/30 04:51:49;;;;;;;26.17;9.73;;;9.80;99.90;;;;;;4987106;28;20212;-79
2022/03/30 04:54:17;;;;;;;23.07;11.30;;;9.80;99.90;;;;;;4986421;28;20197;-79
2022/03/30 04:56:44;;;;;;;20.80;11.20;;;9.70;99.90;;;;;;4987925;28;20193;-78
2022/03/30 04:59:11;;;;;;;26.10;11.43;;;9.70;99.90;;;;;;4986667;28;20253;-78
2022/03/30 05:01:38;;;;;;;21.93;10.10;;;9.70;99.90;;;;;;4985748;28;20713;-79
2022/03/30 05:04:07;;;;;;;21.47;10.23;;;9.60;99.90;;;;;;4982205;28;20280;-80
2022/03/30 05:06:34;;;;;;;23.20;10.50;;;9.60;99.90;;;;;;4986498;28;20199;-78
2022/03/30 05:09:01;;;;;;;26.70;11.70;;;9.60;99.90;;;;;;4984437;28;20217;-79
2022/03/30 05:11:27;;;;;;;21.00;10.23;;;9.50;99.90;;;;;;4985325;28;20216;-79
2022/03/30 05:13:54;;;;;;;25.27;10.83;;;9.40;99.90;;;;;;4981447;28;20198;-79
2022/03/30 05:16:21;;;;;;;28.60;11.30;;;9.50;99.90;;;;;;4978943;28;20671;-79
2022/03/30 05:18:48;;;;;;;24.20;12.03;;;9.50;99.90;;;;;;4980706;28;20706;-79
2022/03/30 05:21:16;;;;;;;22.17;11.90;;;9.40;99.90;;;;;;4983147;28;20202;-79
2022/03/30 05:23:43;;;;;;;23.43;11.17;;;9.40;99.90;;;;;;4984993;28;20909;-79
2022/03/30 05:26:09;;;;;;;20.57;11.10;;;9.40;99.90;;;;;;4982996;28;20194;-79
2022/03/30 05:28:38;;;;;;;23.27;10.60;;;9.40;99.90;;;;;;4980857;28;20194;-79
2022/03/30 05:31:06;;;;;;;28.40;12.43;;;9.30;99.90;;;;;;4984741;28;20295;-79
2022/03/30 05:33:32;;;;;;;19.57;11.07;;;9.20;99.90;;;;;;4981349;28;20681;-79
2022/03/30 05:35:59;;;;;;;31.40;13.57;;;9.20;99.90;;;;;;4982044;28;20202;-79
2022/03/30 05:38:27;;;;;;;27.90;13.60;;;9.20;99.90;;;;;;4984308;28;20671;-79
2022/03/30 05:40:54;;;;;;;20.77;11.70;;;9.20;99.90;;;;;;4983493;28;20190;-79
2022/03/30 05:43:22;;;;;;;17.73;9.30;;;9.30;99.90;;;;;;4983052;28;20780;-79
2022/03/30 05:45:49;;;;;;;21.57;11.23;;;9.30;99.90;;;;;;4981728;28;20300;-78
2022/03/30 05:48:17;;;;;;;19.73;9.63;;;9.30;99.90;;;;;;4985625;28;20244;-79
2022/03/30 05:50:45;;;;;;;23.93;10.87;;;9.30;99.90;;;;;;4981358;28;20216;-79
2022/03/30 05:53:13;;;;;;;19.60;9.60;;;9.30;99.90;;;;;;4979253;28;20209;-79
2022/03/30 05:55:41;;;;;;;21.17;9.50;;;9.40;99.90;;;;;;4983623;28;20733;-79
2022/03/30 05:58:08;;;;;;;17.80;9.30;;;9.30;99.90;;;;;;4985212;28;20201;-79
2022/03/30 06:00:36;;;;;;;19.73;9.20;;;9.30;99.90;;;;;;4979618;28;20721;-78
2022/03/30 06:03:03;;;;;;;23.57;10.53;;;9.40;99.90;;;;;;4979689;28;20225;-78
2022/03/30 06:05:30;;;;;;;19.77;10.90;;;9.40;99.90;;;;;;4983022;28;20197;-79
2022/03/30 06:07:58;;;;;;;24.60;10.50;;;9.40;99.90;;;;;;4976542;28;20189;-79
2022/03/30 06:10:27;;;;;;;23.90;10.77;;;9.40;99.90;;;;;;4985151;28;20702;-79
2022/03/30 06:12:55;;;;;;;24.40;11.10;;;9.40;99.90;;;;;;4996091;28;20611;-79
2022/03/30 06:15:22;;;;;;;25.90;12.00;;;9.40;99.90;;;;;;4976037;28;20209;-78
2022/03/30 06:17:50;;;;;;;28.47;11.33;;;9.40;99.90;;;;;;4983440;28;20203;-78
2022/03/30 06:20:17;;;;;;;27.10;11.40;;;9.50;99.90;;;;;;4984461;28;20706;-80
2022/03/30 06:22:45;;;;;;;21.43;10.57;;;9.40;99.90;;;;;;4981168;28;20209;-78
2022/03/30 06:25:12;;;;;;;20.43;11.17;;;9.40;99.90;;;;;;4981348;28;20197;-78
2022/03/30 06:27:40;;;;;;;19.83;11.23;;;9.50;99.90;;;;;;4983511;28;20248;-79
2022/03/30 06:30:10;;;;;;;21.07;10.80;;;9.50;99.90;;;;;;4975395;28;20225;-79
2022/03/30 06:32:37;;;;;;;26.13;11.40;;;9.50;99.90;;;;;;4978117;28;20197;-79
2022/03/30 06:35:04;;;;;;;15.87;9.17;;;9.50;99.90;;;;;;4977178;28;20256;-79
2022/03/30 06:37:31;;;;;;;17.10;9.60;;;9.50;99.90;;;;;;4982194;28;20208;-79
2022/03/30 06:39:58;;;;;;;18.97;10.17;;;9.50;99.90;;;;;;4982093;28;20245;-79
2022/03/30 06:42:24;;;;;;;20.43;9.47;;;9.50;99.90;;;;;;4982698;28;20206;-79
2022/03/30 06:44:51;;;;;;;18.07;9.47;;;9.60;99.90;;;;;;4982211;28;20220;-79
2022/03/30 06:47:19;;;;;;;21.67;10.13;;;9.50;99.90;;;;;;4982942;28;20216;-78
2022/03/30 06:49:46;;;;;;;22.63;10.80;;;9.50;99.90;;;;;;4980371;28;20213;-78
2022/03/30 06:52:13;;;;;;;28.27;11.63;;;9.50;99.90;;;;;;4978210;28;20751;-78
2022/03/30 06:54:40;;;;;;;18.90;10.60;;;9.50;99.90;;;;;;4982384;28;20276;-78
2022/03/30 06:57:08;;;;;;;25.97;10.53;;;9.50;99.90;;;;;;4981144;28;20194;-79
2022/03/30 06:59:34;;;;;;;19.77;9.73;;;9.50;99.90;;;;;;4980891;28;20305;-78
2022/03/30 07:02:02;;;;;;;23.17;9.23;;;9.50;99.90;;;;;;4979217;28;20205;-78
2022/03/30 07:04:30;;;;;;;23.60;10.73;;;9.50;99.90;;;;;;4976453;28;20245;-79
2022/03/30 07:12:26;;;;;;;20.77;10.70;;;9.50;99.90;;;;;;4979233;28;20189;-79
2022/03/30 07:14:53;;;;;;;20.73;9.97;;;9.50;99.90;;;;;;4979629;28;20206;-78
2022/03/30 07:17:20;;;;;;;16.67;9.70;;;9.50;99.90;;;;;;4981199;28;20202;-79
2022/03/30 07:19:48;;;;;;;18.53;9.60;;;9.50;99.90;;;;;;4981792;28;20260;-79
2022/03/30 07:22:15;;;;;;;21.47;11.03;;;9.50;99.90;;;;;;4981689;28;20671;-78
2022/03/30 07:24:42;;;;;;;26.37;14.30;;;9.60;99.90;;;;;;4976811;28;20197;-79
2022/03/30 07:27:09;;;;;;;26.20;12.90;;;9.50;99.90;;;;;;4975066;28;20631;-78
2022/03/30 07:29:36;;;;;;;22.87;13.47;;;9.50;99.90;;;;;;4980446;28;20225;-80
2022/03/30 07:32:04;;;;;;;27.17;14.83;;;9.50;99.90;;;;;;4980196;28;20197;-78
2022/03/30 07:34:31;;;;;;;32.37;12.97;;;9.60;99.90;;;;;;4983089;28;20201;-80
2022/03/30 07:36:59;;;;;;;21.03;10.90;;;9.60;99.90;;;;;;4984631;28;20285;-78
2022/03/30 07:39:26;;;;;;;16.67;10.27;;;9.60;99.90;;;;;;4980015;28;20226;-79
2022/03/30 07:41:52;;;;;;;20.13;9.97;;;9.70;99.90;;;;;;4982750;28;20197;-78
2022/03/30 07:44:19;;;;;;;20.43;9.77;;;9.70;99.90;;;;;;4983892;28;20728;-79
2022/03/30 07:46:48;;;;;;;15.20;9.47;;;9.80;99.90;;;;;;4983928;28;20202;-79
2022/03/30 07:49:16;;;;;;;32.97;10.70;;;9.80;99.90;;;;;;4992356;28;20217;-79
2022/03/30 07:51:43;;;;;;;20.27;10.87;;;9.80;99.90;;;;;;4983774;28;20206;-79
2022/03/30 07:54:11;;;;;;;22.87;10.73;;;9.90;99.90;;;;;;4983361;28;20207;-79
2022/03/30 07:56:39;;;;;;;16.80;10.10;;;9.90;99.90;;;;;;4985583;28;20281;-79
2022/03/30 07:59:06;;;;;;;20.07;10.50;;;9.90;99.90;;;;;;4979703;28;20258;-79
2022/03/30 08:01:32;;;;;;;18.53;9.83;;;9.90;99.90;;;;;;4983842;28;20598;-79
2022/03/30 08:03:59;;;;;;;18.00;8.50;;;9.90;99.90;;;;;;4984115;28;20209;-79
2022/03/30 08:06:27;;;;;;;13.73;9.20;;;9.90;99.90;;;;;;4982470;28;20256;-80
2022/03/30 08:08:57;;;;;;;20.97;10.03;;;10.00;99.90;;;;;;4983498;28;20226;-79
2022/03/30 08:11:25;;;;;;;21.03;10.40;;;10.00;99.90;;;;;;4986950;28;20678;-80
2022/03/30 08:13:52;;;;;;;18.87;10.50;;;10.00;99.90;;;;;;4983314;28;20221;-79
2022/03/30 08:16:19;;;;;;;24.07;10.63;;;10.10;99.90;;;;;;4979464;28;20206;-79
2022/03/30 08:18:46;;;;;;;17.63;9.27;;;10.10;99.90;;;;;;4981287;28;20732;-79
2022/03/30 08:23:57;;;;;;;15.00;8.33;;;10.20;99.90;;;;;;4981988;28;20292;-80
2022/03/30 08:26:25;;;;;;;19.57;9.37;;;10.20;99.90;;;;;;4984656;28;20622;-79
2022/03/30 08:28:52;;;;;;;21.10;10.33;;;10.30;99.90;;;;;;4983592;28;20237;-80
2022/03/30 08:31:19;;;;;;;15.33;9.77;;;10.30;99.90;;;;;;4982476;28;20202;-79
2022/03/30 08:33:46;;;;;;;15.47;9.37;;;10.40;99.90;;;;;;4983566;28;20597;-79
2022/03/30 08:36:12;;;;;;;18.93;9.77;;;10.50;99.90;;;;;;4983375;28;20264;-79
2022/03/30 08:38:39;;;;;;;21.13;12.10;;;10.50;99.90;;;;;;4980698;28;20658;-79
2022/03/30 08:41:07;;;;;;;19.30;11.57;;;10.50;99.90;;;;;;4980083;28;20201;-79
2022/03/30 08:43:36;;;;;;;18.87;11.50;;;10.50;99.90;;;;;;4982724;28;20250;-79
2022/03/30 08:46:03;;;;;;;20.03;11.37;;;10.40;99.90;;;;;;4982951;28;20203;-80
2022/03/30 08:48:30;;;;;;;21.67;12.50;;;10.40;99.90;;;;;;4983002;28;20199;-79
2022/03/30 08:50:59;;;;;;;20.97;11.57;;;10.40;99.90;;;;;;4988045;28;20195;-79
2022/03/30 08:53:27;;;;;;;18.13;11.60;;;10.40;99.90;;;;;;4983829;28;20281;-80
2022/03/30 08:55:54;;;;;;;19.77;11.80;;;10.40;99.90;;;;;;4982445;28;20747;-77
2022/03/30 08:58:21;;;;;;;20.83;11.93;;;10.50;99.90;;;;;;4988336;28;20225;-78
2022/03/30 09:00:51;;;;;;;20.30;12.07;;;10.50;99.90;;;;;;4982049;28;20269;-79
2022/03/30 09:03:19;;;;;;;21.10;13.03;;;10.50;99.90;;;;;;4984509;28;20214;-79
2022/03/30 09:05:47;;;;;;;20.13;13.60;;;10.50;99.90;;;;;;4981247;28;20226;-79
2022/03/30 09:08:15;;;;;;;21.93;12.83;;;10.40;99.90;;;;;;4978864;28;20250;-79
2022/03/30 09:10:45;;;;;;;20.80;12.90;;;10.40;99.90;;;;;;4984708;28;20232;-78
2022/03/30 09:13:14;;;;;;;20.07;11.93;;;10.50;99.90;;;;;;4986138;28;20868;-79
2022/03/30 09:15:42;;;;;;;22.37;13.93;;;10.60;99.90;;;;;;4981481;28;20203;-79
2022/03/30 09:18:10;;;;;;;22.17;13.57;;;10.60;99.90;;;;;;4982645;28;20250;-81
2022/03/30 09:20:40;;;;;;;23.97;13.80;;;10.70;99.90;;;;;;4974780;28;20707;-78
2022/03/30 09:23:08;;;;;;;23.13;12.93;;;10.70;99.90;;;;;;4980948;28;20507;-79
2022/03/30 09:25:35;;;;;;;27.67;12.30;;;10.80;99.90;;;;;;4983231;28;20261;-80
2022/03/30 09:28:03;;;;;;;25.33;12.57;;;10.90;99.90;;;;;;4981816;28;20610;-79
2022/03/30 09:30:30;;;;;;;18.63;11.40;;;10.90;99.90;;;;;;4977279;28;20801;-80
2022/03/30 09:32:59;;;;;;;20.20;11.07;;;11.00;99.90;;;;;;4985475;28;20672;-79
2022/03/30 09:35:30;;;;;;;15.80;10.80;;;11.10;99.90;;;;;;4979514;28;20263;-79
2022/03/30 09:38:05;;;;;;;20.67;11.47;;;11.10;99.90;;;;;;4983704;28;20727;-80
2022/03/30 09:40:37;;;;;;;13.57;9.03;;;11.10;99.90;;;;;;4976078;28;20223;-79
2022/03/30 09:43:16;;;;;;;21.47;10.00;;;11.20;99.90;;;;;;4985275;28;20709;-80
2022/03/30 09:45:43;;;;;;;20.37;10.43;;;11.20;99.90;;;;;;4973172;28;20202;-79
2022/03/30 09:48:12;;;;;;;14.07;9.30;;;11.30;99.90;;;;;;4979437;28;20199;-80
2022/03/30 09:50:44;;;;;;;13.30;9.17;;;11.30;99.90;;;;;;4972338;28;20251;-78
2022/03/30 09:53:13;;;;;;;17.63;9.27;;;11.30;99.90;;;;;;4981765;28;20214;-80
2022/03/30 09:55:56;;;;;;;19.20;10.03;;;11.30;99.90;;;;;;4983790;28;20211;-79
2022/03/30 09:58:25;;;;;;;17.40;9.57;;;11.40;99.90;;;;;;4982686;28;20203;-79
2022/03/30 10:01:10;;;;;;;14.27;9.30;;;11.40;99.90;;;;;;4982660;28;20692;-79
2022/03/30 10:03:43;;;;;;;17.90;9.93;;;11.40;99.90;;;;;;4979266;28;20212;-80
2022/03/30 10:06:12;;;;;;;22.47;10.87;;;11.50;99.90;;;;;;4983149;28;20200;-79
2022/03/30 10:08:41;;;;;;;19.20;9.53;;;11.50;99.90;;;;;;4969759;28;20302;-79
2022/03/30 10:11:12;;;;;;;16.47;9.60;;;11.60;99.90;;;;;;4976852;28;20205;-79
2022/03/30 10:13:40;;;;;;;17.43;10.30;;;11.70;99.90;;;;;;4973934;28;20193;-79
2022/03/30 10:16:08;;;;;;;21.67;10.73;;;11.80;99.90;;;;;;4981089;28;20244;-79
2022/03/30 10:18:35;;;;;;;19.50;10.57;;;11.80;99.90;;;;;;4984540;28;20188;-79
2022/03/30 10:21:19;;;;;;;16.53;9.53;;;11.80;99.90;;;;;;4987186;28;20216;-79
2022/03/30 10:24:12;;;;;;;19.03;10.83;;;11.90;99.90;;;;;;4979975;28;20255;-79
2022/03/30 10:26:49;;;;;;;22.33;10.03;;;12.00;99.90;;;;;;4978692;28;20275;-80
2022/03/30 10:29:18;;;;;;;17.00;9.90;;;12.20;99.90;;;;;;4983000;28;20689;-79
2022/03/30 10:32:14;;;;;;;18.43;10.67;;;12.40;99.90;;;;;;4979182;28;20638;-79
2022/03/30 10:34:49;;;;;;;18.80;10.90;;;12.50;99.90;;;;;;4977207;28;20200;-79
2022/03/30 10:37:25;;;;;;;17.50;9.60;;;12.40;99.90;;;;;;4977691;28;20239;-79
2022/03/30 10:40:10;;;;;;;14.23;9.37;;;12.50;99.90;;;;;;4977733;28;20600;-79
2022/03/30 10:42:59;;;;;;;18.13;9.23;;;12.50;99.90;;;;;;4974016;28;20201;-80
2022/03/30 10:45:30;;;;;;;15.77;9.20;;;12.60;99.90;;;;;;4979165;28;20753;-80
2022/03/30 10:48:16;;;;;;;18.93;9.33;;;12.50;99.90;;;;;;4980499;28;20256;-79
2022/03/30 10:50:45;;;;;;;16.80;9.23;;;12.60;99.90;;;;;;4980367;28;20229;-80
2022/03/30 10:53:51;;;;;;;16.90;9.40;;;12.70;99.90;;;;;;4983744;28;20193;-80
2022/03/30 10:56:36;;;;;;;12.93;8.80;;;12.90;99.90;;;;;;4981845;28;20574;-79
2022/03/30 10:59:13;;;;;;;15.33;8.40;;;13.20;99.90;;;;;;4980953;28;20213;-80
2022/03/30 11:01:41;;;;;;;15.73;7.63;;;13.70;99.90;;;;;;4953657;28;20281;-80
2022/03/30 11:04:24;;;;;;;10.67;6.70;;;14.00;99.90;;;;;;4953391;29;20641;-80
2022/03/30 11:07:40;;;;;;;14.03;7.13;;;14.20;99.90;;;;;;4954249;29;20258;-79
2022/03/30 11:10:29;;;;;;;14.03;7.63;;;14.30;99.90;;;;;;4954257;28;20303;-79
2022/03/30 11:13:04;;;;;;;15.10;7.30;;;14.20;99.90;;;;;;4985856;28;20243;-80
2022/03/30 11:15:32;;;;;;;14.27;7.17;;;14.10;99.90;;;;;;4989956;28;20201;-79
2022/03/30 11:18:19;;;;;;;14.33;7.07;;;14.00;99.90;;;;;;4985292;28;20744;-80
2022/03/30 11:21:19;;;;;;;15.50;7.50;;;14.00;99.90;;;;;;4983420;28;20224;-79
2022/03/30 11:23:58;;;;;;;10.63;6.80;;;14.00;99.90;;;;;;4984732;28;20210;-81
2022/03/30 11:26:45;;;;;;;12.93;7.40;;;13.90;99.90;;;;;;4987025;28;20216;-79
2022/03/30 11:30:00;;;;;;;11.33;6.90;;;14.00;99.90;;;;;;4986838;28;20217;-79
2022/03/30 11:33:04;;;;;;;15.20;7.77;;;14.10;99.90;;;;;;4891543;29;20656;-80
2022/03/30 11:35:37;;;;;;;13.30;7.43;;;14.30;99.90;;;;;;4889815;29;20209;-80
2022/03/30 11:38:10;;;;;;;11.17;7.50;;;14.50;99.90;;;;;;4963932;28;20626;-80
2022/03/30 11:40:39;;;;;;;12.87;7.17;;;14.50;99.90;;;;;;4984539;28;20783;-80
2022/03/30 11:43:06;;;;;;;14.03;7.00;;;14.50;99.90;;;;;;4988641;28;20204;-79
2022/03/30 11:45:34;;;;;;;13.67;7.43;;;14.40;99.90;;;;;;4983488;28;20219;-79
2022/03/30 11:48:03;;;;;;;12.97;6.83;;;14.30;99.90;;;;;;4984657;28;20204;-79
2022/03/30 11:50:34;;;;;;;14.30;7.43;;;14.20;99.90;;;;;;4987004;28;20207;-79
2022/03/30 11:53:04;;;;;;;13.27;7.17;;;14.10;99.90;;;;;;4983769;28;20619;-79
2022/03/30 11:55:35;;;;;;;10.80;6.97;;;14.00;99.90;;;;;;5002350;28;20208;-80
2022/03/30 11:58:04;;;;;;;11.30;6.57;;;14.20;99.90;;;;;;4979036;28;20190;-80
2022/03/30 12:00:32;;;;;;;11.60;7.17;;;14.50;99.90;;;;;;4981781;28;20261;-80
2022/03/30 12:03:01;;;;;;;11.47;6.03;;;14.70;99.90;;;;;;4985463;28;20206;-80
2022/03/30 12:05:28;;;;;;;12.20;6.20;;;14.90;99.90;;;;;;4980340;28;20311;-80
2022/03/30 12:07:58;;;;;;;10.47;5.60;;;15.00;99.90;;;;;;4983746;28;20204;-80
2022/03/30 12:10:31;;;;;;;12.53;5.80;;;15.10;99.90;;;;;;4984715;28;20229;-80
2022/03/30 12:12:59;;;;;;;12.40;6.10;;;15.00;99.90;;;;;;4982761;28;20300;-80
2022/03/30 12:15:26;;;;;;;9.47;5.43;;;15.00;99.90;;;;;;4985172;28;20612;-79
2022/03/30 12:17:55;;;;;;;9.47;5.53;;;14.90;99.90;;;;;;4982196;28;20241;-80
2022/03/30 12:20:28;;;;;;;11.57;6.40;;;14.70;99.90;;;;;;4977958;28;20283;-80
2022/03/30 12:22:59;;;;;;;11.43;5.80;;;14.40;99.90;;;;;;4986781;28;20200;-80
2022/03/30 12:25:29;;;;;;;12.80;6.60;;;14.10;99.90;;;;;;4981070;28;20244;-80
2022/03/30 12:27:56;;;;;;;16.33;6.60;;;13.80;99.90;;;;;;4982234;28;20234;-80
2022/03/30 12:30:24;;;;;;;7.77;5.67;;;13.40;99.90;;;;;;4986564;28;20277;-79
2022/03/30 12:32:51;;;;;;;12.97;7.30;;;13.20;99.90;;;;;;4984467;28;20189;-80
2022/03/30 12:35:18;;;;;;;12.10;6.40;;;12.90;99.90;;;;;;4984376;28;20263;-81
2022/03/30 12:37:48;;;;;;;14.00;7.07;;;12.70;99.90;;;;;;4982946;28;20252;-79
2022/03/30 12:40:20;;;;;;;10.07;6.57;;;12.60;99.90;;;;;;4978345;28;20479;-80
2022/03/30 12:42:48;;;;;;;13.30;7.43;;;12.50;99.90;;;;;;4985834;28;20193;-79
2022/03/30 12:45:17;;;;;;;20.00;7.80;;;12.30;99.90;;;;;;4983277;28;20214;-80
2022/03/30 12:47:50;;;;;;;16.87;8.33;;;12.20;99.90;;;;;;4984648;28;20618;-80
2022/03/30 12:50:19;;;;;;;13.43;7.23;;;12.00;99.90;;;;;;4984575;28;20244;-79
2022/03/30 12:52:49;;;;;;;15.17;8.57;;;11.90;99.90;;;;;;4982297;28;20469;-80
2022/03/30 12:55:24;;;;;;;16.30;8.37;;;11.90;99.90;;;;;;4989280;28;20208;-80